Time;durP1;ratioP1;P1;durP2;ratioP2;P2;SDS_P1;SDS_P2;PMS_P1;PMS_P2;Temp;Humidity;BMP_temperature;BMP_pressure;BME280_temperature;BME280_humidity;BME280_pressure;Samples;Min_cycle;Max_cycle;Signal;HPM_P1;HPM_P2
2022/01/23 00:02:14;;;;;;;18.33;6.68;;;;;;;;;;4971925;28;20029;-67
2022/01/23 00:04:40;;;;;;;17.63;6.30;;;;;;;;;;4972210;28;20452;-67
2022/01/23 00:07:08;;;;;;;19.98;7.57;;;;;;;;;;4971337;28;20460;-67
2022/01/23 00:09:35;;;;;;;24.35;8.15;;;;;;;;;;4954637;28;20420;-67
2022/01/23 00:12:05;;;;;;;18.98;6.53;;;;;;;;;;4954640;28;20316;-67
2022/01/23 00:17:18;;;;;;;18.35;6.55;;;;;;;;;;4971781;28;20471;-67
2022/01/23 00:19:45;;;;;;;19.33;6.45;;;;;;;;;;4954732;28;20072;-67
2022/01/23 00:22:11;;;;;;;19.42;6.00;;;;;;;;;;4954690;28;20025;-67
2022/01/23 00:32:49;;;;;;;15.55;6.63;;;;;;;;;;4956445;28;20045;-67
2022/01/23 00:35:14;;;;;;;14.18;5.97;;;;;;;;;;4953433;28;20095;-66
2022/01/23 00:37:40;;;;;;;19.30;6.20;;;;;;;;;;4972976;28;20034;-67
2022/01/23 00:40:06;;;;;;;17.15;5.47;;;;;;;;;;4952402;28;20444;-66
2022/01/23 00:42:32;;;;;;;17.08;6.50;;;;;;;;;;4953897;28;20026;-66
2022/01/23 00:45:12;;;;;;;16.40;5.90;;;;;;;;;;4971531;28;20400;-66
2022/01/23 00:47:38;;;;;;;17.65;6.75;;;;;;;;;;4955329;28;20073;-66
2022/01/23 00:50:04;;;;;;;18.73;7.07;;;;;;;;;;4971390;28;20080;-67
2022/01/23 00:52:29;;;;;;;19.40;7.13;;;;;;;;;;4970977;28;20343;-67
2022/01/23 00:54:55;;;;;;;14.77;6.13;;;;;;;;;;4971527;28;20477;-66
2022/01/23 00:57:21;;;;;;;14.18;5.95;;;;;;;;;;4970892;28;20060;-68
2022/01/23 00:59:46;;;;;;;16.13;5.63;;;;;;;;;;4952925;28;20443;-66
2022/01/23 01:02:11;;;;;;;18.20;6.75;;;;;;;;;;4946019;28;20383;-66
2022/01/23 01:04:37;;;;;;;14.77;5.57;;;;;;;;;;4951505;28;20109;-67
2022/01/23 01:07:02;;;;;;;15.05;6.20;;;;;;;;;;4950517;28;20356;-67
2022/01/23 01:09:29;;;;;;;13.02;6.18;;;;;;;;;;4953288;28;20317;-68
2022/01/23 01:11:58;;;;;;;12.45;5.55;;;;;;;;;;4951480;28;20345;-67
2022/01/23 01:14:42;;;;;;;17.45;6.40;;;;;;;;;;4934153;28;20623;-67
2022/01/23 01:17:16;;;;;;;12.80;5.45;;;;;;;;;;4951194;28;20329;-66
2022/01/23 01:33:46;;;;;;;15.75;5.93;;;;;;;;;;4951011;28;20476;-66
2022/01/23 01:36:20;;;;;;;11.02;4.72;;;;;;;;;;4951111;28;20037;-67
2022/01/23 01:38:46;;;;;;;12.40;4.85;;;;;;;;;;4935822;28;20096;-67
2022/01/23 01:41:12;;;;;;;13.02;5.35;;;;;;;;;;4965281;28;20456;-67
2022/01/23 01:43:37;;;;;;;15.68;5.90;;;;;;;;;;4933718;28;20468;-66
2022/01/23 01:46:03;;;;;;;11.70;5.35;;;;;;;;;;4932719;28;20570;-66
2022/01/23 01:48:29;;;;;;;15.23;5.78;;;;;;;;;;4933172;28;20403;-66
2022/01/23 01:50:55;;;;;;;13.52;5.03;;;;;;;;;;4950829;28;20324;-68
2022/01/23 01:53:22;;;;;;;11.68;5.40;;;;;;;;;;4950555;28;20044;-67
2022/01/23 01:55:51;;;;;;;11.82;4.47;;;;;;;;;;4951066;28;20483;-67
2022/01/23 01:58:56;;;;;;;14.13;6.22;;;;;;;;;;4964927;28;20372;-66
2022/01/23 02:09:20;;;;;;;11.63;4.88;;;;;;;;;;4950180;28;20360;-68
2022/01/23 02:14:27;;;;;;;11.35;4.47;;;;;;;;;;4950959;28;20176;-67
2022/01/23 02:52:45;;;;;;;10.70;4.78;;;;;;;;;;4950316;28;20478;-66
2022/01/23 02:54:57;;;;;;;9.38;3.70;;;;;;;;;;4949200;28;20060;-67
2022/01/23 03:00:12;;;;;;;9.77;3.83;;;;;;;;;;4963122;28;20495;-68
2022/01/23 03:02:44;;;;;;;10.38;3.63;;;;;;;;;;4952124;28;20468;-66
2022/01/23 03:05:13;;;;;;;10.48;3.75;;;;;;;;;;4968063;28;20421;-67
2022/01/23 03:10:26;;;;;;;9.25;3.80;;;;;;;;;;4947755;28;20426;-68
2022/01/23 03:26:51;;;;;;;11.18;4.30;;;;;;;;;;4935223;28;20341;-67
2022/01/23 03:34:18;;;;;;;13.38;4.43;;;;;;;;;;4933051;28;20318;-68
2022/01/23 03:36:44;;;;;;;12.75;4.85;;;;;;;;;;4932476;28;20452;-67
2022/01/23 03:39:10;;;;;;;8.13;3.80;;;;;;;;;;4934044;28;20429;-68
2022/01/23 03:41:37;;;;;;;8.00;3.42;;;;;;;;;;4933873;28;20026;-66
2022/01/23 03:44:05;;;;;;;12.50;4.25;;;;;;;;;;4931773;28;20392;-67
2022/01/23 03:47:01;;;;;;;11.38;3.95;;;;;;;;;;4933747;28;20489;-67
2022/01/23 03:49:31;;;;;;;10.60;4.18;;;;;;;;;;4934143;28;20101;-66
2022/01/23 03:51:59;;;;;;;8.32;3.22;;;;;;;;;;4934296;28;20412;-66
2022/01/23 03:54:26;;;;;;;15.70;4.00;;;;;;;;;;4948287;28;20417;-66
2022/01/23 03:56:51;;;;;;;8.60;4.07;;;;;;;;;;4947877;28;20026;-67
2022/01/23 03:59:17;;;;;;;9.30;3.67;;;;;;;;;;4932016;28;20468;-68
2022/01/23 04:01:42;;;;;;;9.82;3.78;;;;;;;;;;4933297;28;20384;-66
2022/01/23 04:04:21;;;;;;;11.90;3.78;;;;;;;;;;4932068;28;20540;-67
2022/01/23 04:06:47;;;;;;;11.40;3.92;;;;;;;;;;4944986;28;20510;-66
2022/01/23 04:09:12;;;;;;;10.52;4.38;;;;;;;;;;4952484;28;20463;-67
2022/01/23 04:11:37;;;;;;;8.98;3.70;;;;;;;;;;4952680;28;20531;-66
2022/01/23 04:14:07;;;;;;;11.68;4.30;;;;;;;;;;4952513;28;20433;-66
2022/01/23 04:19:40;;;;;;;12.02;4.00;;;;;;;;;;4952322;28;20502;-67
2022/01/23 04:33:29;;;;;;;8.00;3.83;;;;;;;;;;4953333;28;20500;-67
2022/01/23 05:00:49;;;;;;;8.93;3.33;;;;;;;;;;4951880;28;20392;-67
2022/01/23 05:06:02;;;;;;;9.90;4.15;;;;;;;;;;4951047;28;20373;-66
2022/01/23 05:08:30;;;;;;;10.23;3.63;;;;;;;;;;4934136;28;20441;-67
2022/01/23 05:10:59;;;;;;;11.93;3.90;;;;;;;;;;4951042;28;20433;-69
2022/01/23 05:13:26;;;;;;;10.70;3.25;;;;;;;;;;4951302;28;20559;-67
2022/01/23 05:15:52;;;;;;;7.15;3.85;;;;;;;;;;4951313;28;20353;-66
2022/01/23 05:18:17;;;;;;;10.63;4.07;;;;;;;;;;4951809;28;20432;-66
2022/01/23 05:20:44;;;;;;;8.65;3.58;;;;;;;;;;4951188;28;20452;-67
2022/01/23 05:23:10;;;;;;;9.52;3.88;;;;;;;;;;4951637;28;20392;-66
2022/01/23 05:25:37;;;;;;;9.63;4.35;;;;;;;;;;4950190;28;20423;-67
2022/01/23 05:28:03;;;;;;;10.45;4.22;;;;;;;;;;4952720;28;20427;-66
2022/01/23 05:30:28;;;;;;;11.30;4.05;;;;;;;;;;4950910;28;20448;-66
2022/01/23 05:32:55;;;;;;;6.82;3.85;;;;;;;;;;4951080;28;20445;-66
2022/01/23 05:35:23;;;;;;;15.10;3.55;;;;;;;;;;4951772;28;20302;-66
2022/01/23 05:37:48;;;;;;;10.05;3.88;;;;;;;;;;4950798;28;20338;-67
2022/01/23 05:40:16;;;;;;;12.35;3.83;;;;;;;;;;4950583;28;20088;-66
2022/01/23 05:42:41;;;;;;;8.82;3.95;;;;;;;;;;4951263;28;20499;-66
2022/01/23 05:45:08;;;;;;;7.82;3.70;;;;;;;;;;4950793;28;20400;-66
2022/01/23 05:47:34;;;;;;;10.32;3.47;;;;;;;;;;4933037;28;20444;-66
2022/01/23 05:49:59;;;;;;;10.68;3.55;;;;;;;;;;4949583;28;20542;-66
2022/01/23 05:52:24;;;;;;;11.90;4.28;;;;;;;;;;4933891;28;20505;-67
2022/01/23 05:54:50;;;;;;;12.40;4.28;;;;;;;;;;4950546;28;20344;-66
2022/01/23 05:57:15;;;;;;;9.32;3.63;;;;;;;;;;4950529;28;20302;-67
2022/01/23 05:59:40;;;;;;;10.10;4.03;;;;;;;;;;4950833;28;20491;-67
2022/01/23 06:02:06;;;;;;;8.30;3.58;;;;;;;;;;4950335;28;20363;-66
2022/01/23 06:04:31;;;;;;;8.48;3.85;;;;;;;;;;4951244;28;20326;-66
2022/01/23 06:06:58;;;;;;;9.55;4.53;;;;;;;;;;4949912;28;20357;-67
2022/01/23 06:09:24;;;;;;;10.05;4.63;;;;;;;;;;4948635;28;20341;-66
2022/01/23 06:11:50;;;;;;;13.30;4.72;;;;;;;;;;4950041;28;20349;-67
2022/01/23 06:14:16;;;;;;;30.85;8.82;;;;;;;;;;4950440;28;20021;-66
2022/01/23 06:16:41;;;;;;;17.58;6.15;;;;;;;;;;4950830;28;20026;-66
2022/01/23 06:19:06;;;;;;;19.05;7.07;;;;;;;;;;4951414;28;20428;-66
2022/01/23 06:21:32;;;;;;;13.32;5.10;;;;;;;;;;4932806;28;20052;-67
2022/01/23 06:24:09;;;;;;;15.23;4.63;;;;;;;;;;4950042;28;20388;-66
2022/01/23 06:26:41;;;;;;;15.80;5.70;;;;;;;;;;4950869;28;20352;-67
2022/01/23 06:29:07;;;;;;;15.77;5.55;;;;;;;;;;4950005;28;20460;-68
2022/01/23 06:31:32;;;;;;;18.42;5.65;;;;;;;;;;4951227;28;20448;-66
2022/01/23 06:34:00;;;;;;;21.33;6.32;;;;;;;;;;4932144;28;20336;-66
2022/01/23 06:36:25;;;;;;;17.65;5.93;;;;;;;;;;4949647;28;20440;-66
2022/01/23 06:38:50;;;;;;;19.40;5.90;;;;;;;;;;4948951;28;20341;-67
2022/01/23 06:41:16;;;;;;;18.42;6.28;;;;;;;;;;4932512;28;20026;-67
2022/01/23 06:43:41;;;;;;;15.75;6.07;;;;;;;;;;4951006;28;20314;-66
2022/01/23 06:46:06;;;;;;;15.10;5.75;;;;;;;;;;4951274;28;20488;-66
2022/01/23 06:48:31;;;;;;;16.70;6.03;;;;;;;;;;4949677;28;20038;-66
2022/01/23 06:50:57;;;;;;;16.00;5.78;;;;;;;;;;4932235;28;20429;-66
2022/01/23 06:53:22;;;;;;;21.77;6.80;;;;;;;;;;4950359;28;20322;-66
2022/01/23 06:55:47;;;;;;;15.63;6.35;;;;;;;;;;4932825;28;20441;-66
2022/01/23 06:58:13;;;;;;;24.65;6.78;;;;;;;;;;4949701;28;20030;-66
2022/01/23 07:00:38;;;;;;;20.58;7.00;;;;;;;;;;4949772;28;20425;-66
2022/01/23 07:03:03;;;;;;;16.00;6.53;;;;;;;;;;4932332;28;20444;-66
2022/01/23 07:05:29;;;;;;;14.68;5.00;;;;;;;;;;4949644;28;20397;-66
2022/01/23 07:07:54;;;;;;;16.48;5.68;;;;;;;;;;4950739;28;20052;-66
2022/01/23 07:10:21;;;;;;;18.30;6.70;;;;;;;;;;4949625;28;20390;-66
2022/01/23 07:12:46;;;;;;;13.88;5.55;;;;;;;;;;4931942;28;20349;-67
2022/01/23 07:15:12;;;;;;;13.32;6.13;;;;;;;;;;4949707;28;20336;-68
2022/01/23 07:17:41;;;;;;;14.13;5.47;;;;;;;;;;4931702;28;20117;-66
2022/01/23 07:20:07;;;;;;;17.05;5.85;;;;;;;;;;4949677;28;20052;-66
2022/01/23 07:22:32;;;;;;;15.15;6.47;;;;;;;;;;4949402;28;20444;-66
2022/01/23 07:25:02;;;;;;;16.13;5.95;;;;;;;;;;4949334;28;20490;-66
2022/01/23 07:27:33;;;;;;;15.70;5.82;;;;;;;;;;4932435;28;20088;-67
2022/01/23 07:29:58;;;;;;;17.60;6.18;;;;;;;;;;4949963;28;20340;-67
2022/01/23 07:32:23;;;;;;;15.52;6.75;;;;;;;;;;4949372;28;20360;-67
2022/01/23 07:34:49;;;;;;;16.60;6.15;;;;;;;;;;4932178;28;20364;-66
2022/01/23 07:37:15;;;;;;;20.40;6.15;;;;;;;;;;4948809;28;20468;-67
2022/01/23 07:39:40;;;;;;;14.95;6.40;;;;;;;;;;4949530;28;20415;-66
2022/01/23 07:42:06;;;;;;;16.50;6.97;;;;;;;;;;4964713;28;20441;-66
2022/01/23 07:44:31;;;;;;;18.67;6.15;;;;;;;;;;4949343;28;20349;-66
2022/01/23 07:46:57;;;;;;;18.02;7.38;;;;;;;;;;4949471;28;20446;-66
2022/01/23 07:49:23;;;;;;;17.25;6.57;;;;;;;;;;4951506;28;20321;-67
2022/01/23 07:51:49;;;;;;;16.33;5.82;;;;;;;;;;4954332;28;20026;-66
2022/01/23 07:54:14;;;;;;;14.65;6.63;;;;;;;;;;4953489;28;20038;-66
2022/01/23 07:56:42;;;;;;;16.92;6.68;;;;;;;;;;4952766;28;20524;-67
2022/01/23 07:59:10;;;;;;;14.93;6.93;;;;;;;;;;4952784;28;20532;-67
2022/01/23 08:01:39;;;;;;;19.98;7.03;;;;;;;;;;4952883;28;20432;-66
2022/01/23 08:04:07;;;;;;;22.08;8.23;;;;;;;;;;4935791;28;20076;-66
2022/01/23 08:06:39;;;;;;;15.20;6.43;;;;;;;;;;4952096;28;20483;-67
2022/01/23 08:09:05;;;;;;;16.80;6.43;;;;;;;;;;4952666;28;20443;-66
2022/01/23 08:11:30;;;;;;;17.33;6.10;;;;;;;;;;4952557;28;20409;-66
2022/01/23 08:13:55;;;;;;;16.10;5.55;;;;;;;;;;4952709;28;20113;-67
2022/01/23 08:16:21;;;;;;;18.50;6.65;;;;;;;;;;4953398;28;20400;-66
2022/01/23 08:18:46;;;;;;;15.13;5.85;;;;;;;;;;4952420;28;20504;-67
2022/01/23 08:21:11;;;;;;;18.08;6.75;;;;;;;;;;4953019;28;20038;-66
2022/01/23 08:23:38;;;;;;;21.58;5.80;;;;;;;;;;4952169;28;20527;-67
2022/01/23 08:26:04;;;;;;;13.75;6.07;;;;;;;;;;4952584;28;20320;-67
2022/01/23 08:28:30;;;;;;;17.35;6.03;;;;;;;;;;4952519;28;20506;-66
2022/01/23 08:30:55;;;;;;;16.25;6.38;;;;;;;;;;4934690;28;20417;-68
2022/01/23 08:33:20;;;;;;;12.25;6.45;;;;;;;;;;4951934;28;20377;-66
2022/01/23 08:35:46;;;;;;;17.42;6.90;;;;;;;;;;4951878;28;20324;-66
2022/01/23 08:38:13;;;;;;;15.88;6.57;;;;;;;;;;4952578;28;20480;-66
2022/01/23 08:43:07;;;;;;;21.50;7.28;;;;;;;;;;4953419;28;20420;-66
2022/01/23 08:45:33;;;;;;;15.48;7.25;;;;;;;;;;4934237;28;20053;-67
2022/01/23 08:47:59;;;;;;;17.00;6.72;;;;;;;;;;4952147;28;20415;-67
2022/01/23 08:50:25;;;;;;;16.60;6.95;;;;;;;;;;4934994;28;20451;-68
2022/01/23 08:52:51;;;;;;;15.70;7.35;;;;;;;;;;4951699;28;20463;-67
2022/01/23 08:55:16;;;;;;;17.75;7.10;;;;;;;;;;4951762;28;20504;-66
2022/01/23 08:57:41;;;;;;;19.83;7.45;;;;;;;;;;4951765;28;20041;-66
2022/01/23 09:00:07;;;;;;;17.90;7.25;;;;;;;;;;4951183;28;20337;-66
2022/01/23 09:02:32;;;;;;;18.85;7.30;;;;;;;;;;4951215;28;20520;-66
2022/01/23 09:05:00;;;;;;;18.67;7.53;;;;;;;;;;4934163;28;20101;-66
2022/01/23 09:07:25;;;;;;;17.80;7.53;;;;;;;;;;4950554;28;20483;-66
2022/01/23 09:09:51;;;;;;;20.35;7.53;;;;;;;;;;4934043;28;20329;-68
2022/01/23 09:12:40;;;;;;;12.80;7.50;;;;;;;;;;4951574;28;20329;-66
2022/01/23 09:15:06;;;;;;;20.10;8.20;;;;;;;;;;4951072;28;20344;-66
2022/01/23 09:17:32;;;;;;;19.38;7.60;;;;;;;;;;4966527;28;20475;-66
2022/01/23 09:19:58;;;;;;;17.95;7.30;;;;;;;;;;4951305;28;20412;-66
2022/01/23 09:22:27;;;;;;;15.68;7.07;;;;;;;;;;4951163;28;20030;-67
2022/01/23 09:24:52;;;;;;;16.30;8.05;;;;;;;;;;4951266;28;20416;-66
2022/01/23 09:27:20;;;;;;;20.83;8.43;;;;;;;;;;4933423;28;20441;-66
2022/01/23 09:29:49;;;;;;;18.00;7.53;;;;;;;;;;4934729;28;20338;-67
2022/01/23 09:32:16;;;;;;;16.48;7.95;;;;;;;;;;4951597;28;20436;-66
2022/01/23 09:34:42;;;;;;;23.08;8.70;;;;;;;;;;4951036;28;20384;-66
2022/01/23 09:37:11;;;;;;;22.40;8.82;;;;;;;;;;4965289;28;20384;-66
2022/01/23 09:39:37;;;;;;;17.63;7.63;;;;;;;;;;4933301;28;20482;-67
2022/01/23 09:42:12;;;;;;;17.42;7.65;;;;;;;;;;4950494;28;20503;-67
2022/01/23 09:44:58;;;;;;;15.38;7.32;;;;;;;;;;4950982;28;20030;-67
2022/01/23 09:47:23;;;;;;;20.45;7.72;;;;;;;;;;4933083;28;20514;-67
2022/01/23 09:49:51;;;;;;;13.90;7.60;;;;;;;;;;4933302;28;20437;-67
2022/01/23 09:52:17;;;;;;;19.67;8.50;;;;;;;;;;4950791;28;20463;-66
2022/01/23 09:54:45;;;;;;;20.35;7.85;;;;;;;;;;4948853;28;20356;-67
2022/01/23 09:57:11;;;;;;;20.67;9.77;;;;;;;;;;4951069;28;20520;-68
2022/01/23 09:59:38;;;;;;;20.88;7.93;;;;;;;;;;4950535;28;20568;-67
2022/01/23 10:02:03;;;;;;;23.00;8.73;;;;;;;;;;4933086;28;20341;-67
2022/01/23 10:04:30;;;;;;;19.67;8.15;;;;;;;;;;4950919;28;20022;-67
2022/01/23 10:06:55;;;;;;;25.38;9.55;;;;;;;;;;4949724;28;20364;-66
2022/01/23 10:09:21;;;;;;;20.73;7.60;;;;;;;;;;4951342;28;20343;-67
2022/01/23 10:11:48;;;;;;;16.67;7.70;;;;;;;;;;4932538;28;20030;-67
2022/01/23 10:14:15;;;;;;;18.65;7.65;;;;;;;;;;4932687;28;20417;-66
2022/01/23 10:16:40;;;;;;;17.50;7.35;;;;;;;;;;4932800;28;20352;-68
2022/01/23 10:19:08;;;;;;;18.42;8.07;;;;;;;;;;4951623;28;20376;-67
2022/01/23 10:21:34;;;;;;;18.60;7.15;;;;;;;;;;4950984;28;20044;-67
2022/01/23 10:24:00;;;;;;;18.98;9.02;;;;;;;;;;4950308;28;20340;-67
2022/01/23 10:26:44;;;;;;;19.58;7.50;;;;;;;;;;4950207;28;20368;-66
2022/01/23 10:29:25;;;;;;;16.08;7.57;;;;;;;;;;4932671;28;20526;-68
2022/01/23 10:32:07;;;;;;;18.27;7.45;;;;;;;;;;4950241;28;20445;-68
2022/01/23 10:34:41;;;;;;;17.73;8.15;;;;;;;;;;4950130;28;20042;-67
2022/01/23 10:37:07;;;;;;;16.77;7.60;;;;;;;;;;4950304;28;20388;-67
2022/01/23 10:39:45;;;;;;;13.93;7.45;;;;;;;;;;4932229;28;20135;-66
2022/01/23 10:42:51;;;;;;;21.80;8.93;;;;;;;;;;4949990;28;20340;-67
2022/01/23 10:50:50;;;;;;;22.55;10.23;;;;;;;;;;4950820;28;20034;-68
2022/01/23 10:53:15;;;;;;;20.05;8.40;;;;;;;;;;4932243;28;20388;-67
2022/01/23 10:55:42;;;;;;;19.17;7.90;;;;;;;;;;4950371;28;20057;-66
2022/01/23 10:58:19;;;;;;;19.55;8.35;;;;;;;;;;4950730;28;20441;-67
2022/01/23 11:00:44;;;;;;;17.25;7.93;;;;;;;;;;4932341;28;20092;-66
2022/01/23 11:03:17;;;;;;;19.25;8.73;;;;;;;;;;4932331;28;20445;-67
2022/01/23 11:05:44;;;;;;;18.52;7.97;;;;;;;;;;4948479;28;20421;-67
2022/01/23 11:08:30;;;;;;;19.70;8.95;;;;;;;;;;4932413;28;20466;-66
2022/01/23 11:10:56;;;;;;;20.55;9.27;;;;;;;;;;4949504;28;20423;-67
2022/01/23 11:19:24;;;;;;;19.55;8.05;;;;;;;;;;4962870;28;20123;-67
2022/01/23 11:21:52;;;;;;;18.20;9.40;;;;;;;;;;4949733;28;20371;-67
2022/01/23 11:24:18;;;;;;;16.58;7.65;;;;;;;;;;4951638;28;20444;-67
2022/01/23 11:26:43;;;;;;;18.75;8.60;;;;;;;;;;4935870;28;20491;-67
2022/01/23 11:29:14;;;;;;;20.13;8.13;;;;;;;;;;4953152;28;20357;-68
2022/01/23 11:31:40;;;;;;;19.27;9.40;;;;;;;;;;4968635;28;20407;-67
2022/01/23 11:34:07;;;;;;;18.35;8.48;;;;;;;;;;4968085;28;20368;-67
2022/01/23 11:36:33;;;;;;;17.55;8.15;;;;;;;;;;4954573;28;20481;-66
2022/01/23 11:39:07;;;;;;;23.85;9.00;;;;;;;;;;4935470;28;20444;-66
2022/01/23 11:55:32;;;;;;;15.45;7.57;;;;;;;;;;4953160;28;20465;-66
2022/01/23 11:57:58;;;;;;;17.77;7.80;;;;;;;;;;4952918;28;20428;-66
2022/01/23 12:00:26;;;;;;;19.60;7.43;;;;;;;;;;4952990;28;20479;-67
2022/01/23 12:03:17;;;;;;;24.95;9.10;;;;;;;;;;4952813;28;20349;-67
2022/01/23 12:05:47;;;;;;;20.70;8.23;;;;;;;;;;4952165;28;20515;-66
2022/01/23 12:08:18;;;;;;;17.13;8.05;;;;;;;;;;4934847;28;20514;-67
2022/01/23 12:11:17;;;;;;;18.17;8.45;;;;;;;;;;4951889;28;20458;-67
2022/01/23 12:16:25;;;;;;;16.13;7.72;;;;;;;;;;4935009;28;20520;-66
2022/01/23 12:19:26;;;;;;;16.85;7.90;;;;;;;;;;4938364;28;20385;-66
2022/01/23 12:21:53;;;;;;;21.25;7.45;;;;;;;;;;4873247;29;20335;-66
2022/01/23 12:24:22;;;;;;;14.70;7.65;;;;;;;;;;4936436;28;20437;-68
2022/01/23 12:26:48;;;;;;;20.40;8.33;;;;;;;;;;4952557;28;20076;-67
2022/01/23 12:29:18;;;;;;;23.48;8.27;;;;;;;;;;4952279;28;20515;-68
2022/01/23 12:31:44;;;;;;;18.17;7.82;;;;;;;;;;4967231;28;20538;-67
2022/01/23 12:34:10;;;;;;;19.35;8.77;;;;;;;;;;4934636;28;20436;-67
2022/01/23 12:36:37;;;;;;;18.02;7.55;;;;;;;;;;4934746;28;20456;-66
2022/01/23 12:39:09;;;;;;;18.13;7.53;;;;;;;;;;4951666;28;20683;-67
2022/01/23 12:41:39;;;;;;;23.90;8.25;;;;;;;;;;4951830;28;20072;-67
2022/01/23 12:44:05;;;;;;;15.65;7.50;;;;;;;;;;4950619;28;20337;-67
2022/01/23 12:46:38;;;;;;;16.10;7.85;;;;;;;;;;4952110;28;20546;-67
2022/01/23 12:49:27;;;;;;;16.98;7.53;;;;;;;;;;4952976;28;20468;-67
2022/01/23 12:51:54;;;;;;;17.42;7.90;;;;;;;;;;4952183;28;20037;-66
2022/01/23 12:54:23;;;;;;;21.77;7.53;;;;;;;;;;4952277;28;20320;-67
2022/01/23 12:56:50;;;;;;;18.02;8.32;;;;;;;;;;4951322;28;20460;-66
2022/01/23 12:59:25;;;;;;;20.33;7.90;;;;;;;;;;4934423;28;20044;-68
2022/01/23 13:01:57;;;;;;;22.10;8.82;;;;;;;;;;4951873;28;20439;-66
2022/01/23 13:04:22;;;;;;;21.10;9.95;;;;;;;;;;4965513;28;20341;-67
2022/01/23 13:06:52;;;;;;;18.10;7.47;;;;;;;;;;4930050;28;20322;-67
2022/01/23 13:09:31;;;;;;;20.95;8.32;;;;;;;;;;4932103;28;20104;-67
2022/01/23 13:12:17;;;;;;;17.90;7.63;;;;;;;;;;4932815;28;20053;-66
2022/01/23 13:14:55;;;;;;;21.58;8.32;;;;;;;;;;4932251;28;20421;-66
2022/01/23 13:17:47;;;;;;;17.70;7.47;;;;;;;;;;4931132;28;20357;-67
2022/01/23 13:31:41;;;;;;;18.17;8.48;;;;;;;;;;4930624;28;20460;-67
2022/01/23 13:34:38;;;;;;;18.40;8.43;;;;;;;;;;4931928;28;20404;-66
2022/01/23 13:37:06;;;;;;;19.65;7.47;;;;;;;;;;4930153;28;20352;-68
2022/01/23 13:39:43;;;;;;;18.00;8.07;;;;;;;;;;4931857;28;20023;-68
2022/01/23 13:48:37;;;;;;;17.95;7.63;;;;;;;;;;4931731;28;20479;-67
2022/01/23 13:59:41;;;;;;;16.50;7.38;;;;;;;;;;4944587;28;20552;-67
2022/01/23 14:02:31;;;;;;;20.73;7.37;;;;;;;;;;4929629;28;20349;-66
2022/01/23 14:05:17;;;;;;;21.67;7.65;;;;;;;;;;4931129;28;20678;-67
2022/01/23 14:07:50;;;;;;;16.98;7.65;;;;;;;;;;4929417;28;20334;-66
2022/01/23 14:10:17;;;;;;;22.90;8.45;;;;;;;;;;4945771;28;20417;-66
2022/01/23 14:12:45;;;;;;;22.10;7.43;;;;;;;;;;4930941;28;20471;-67
2022/01/23 14:15:13;;;;;;;21.10;8.10;;;;;;;;;;4932226;28;20357;-69
2022/01/23 14:17:39;;;;;;;21.73;7.85;;;;;;;;;;4931101;28;20464;-67
2022/01/23 14:20:14;;;;;;;18.52;7.75;;;;;;;;;;4930756;28;20461;-67
2022/01/23 14:22:42;;;;;;;20.90;7.70;;;;;;;;;;4930752;28;20407;-67
2022/01/23 14:25:24;;;;;;;22.07;8.33;;;;;;;;;;4930666;28;20433;-67
2022/01/23 14:28:06;;;;;;;23.98;9.60;;;;;;;;;;4913530;28;20373;-68
2022/01/23 14:30:31;;;;;;;20.38;8.23;;;;;;;;;;4929235;28;20342;-68
2022/01/23 14:33:05;;;;;;;21.38;8.25;;;;;;;;;;4929165;28;20395;-67
2022/01/23 14:35:32;;;;;;;20.48;9.40;;;;;;;;;;4944124;28;20026;-66
2022/01/23 14:38:16;;;;;;;22.17;8.45;;;;;;;;;;4930615;28;20346;-69
2022/01/23 14:41:09;;;;;;;24.65;8.60;;;;;;;;;;4930483;28;20503;-66
2022/01/23 14:43:36;;;;;;;21.80;8.52;;;;;;;;;;4945376;28;20492;-67
2022/01/23 14:46:04;;;;;;;28.08;9.75;;;;;;;;;;4930320;28;20449;-67
2022/01/23 14:48:29;;;;;;;19.80;7.57;;;;;;;;;;4930542;28;20417;-66
2022/01/23 14:50:56;;;;;;;21.80;9.73;;;;;;;;;;4930716;28;20410;-67
2022/01/23 14:53:24;;;;;;;23.23;8.75;;;;;;;;;;4931557;28;20455;-67
2022/01/23 14:55:55;;;;;;;24.25;9.25;;;;;;;;;;4945086;28;20344;-67
2022/01/23 14:58:21;;;;;;;18.10;8.00;;;;;;;;;;4931666;28;20528;-66
2022/01/23 15:00:49;;;;;;;19.90;8.77;;;;;;;;;;4933117;28;20036;-66
2022/01/23 15:03:14;;;;;;;22.95;9.60;;;;;;;;;;4949230;28;20331;-66
2022/01/23 15:05:40;;;;;;;23.05;9.73;;;;;;;;;;4932979;28;20337;-67
2022/01/23 15:08:08;;;;;;;20.52;8.45;;;;;;;;;;4935667;28;20408;-67
2022/01/23 15:10:35;;;;;;;26.38;9.00;;;;;;;;;;4936958;28;20150;-67
2022/01/23 15:13:00;;;;;;;19.73;9.75;;;;;;;;;;4919747;28;20388;-67
2022/01/23 15:15:27;;;;;;;22.02;8.82;;;;;;;;;;4936165;28;20345;-67
2022/01/23 15:17:53;;;;;;;22.55;8.52;;;;;;;;;;4967975;28;20368;-68
2022/01/23 15:20:18;;;;;;;18.20;7.90;;;;;;;;;;4954454;28;20395;-67
2022/01/23 15:22:44;;;;;;;25.77;10.07;;;;;;;;;;4953710;28;20348;-67
2022/01/23 15:25:11;;;;;;;19.52;8.60;;;;;;;;;;4935761;28;20364;-67
2022/01/23 15:27:37;;;;;;;23.10;8.65;;;;;;;;;;4935586;28;20049;-68
2022/01/23 15:30:05;;;;;;;16.73;7.75;;;;;;;;;;4936350;28;20037;-67
2022/01/23 15:32:30;;;;;;;25.08;8.02;;;;;;;;;;4935830;28;20030;-67
2022/01/23 15:34:55;;;;;;;21.60;8.90;;;;;;;;;;4935792;28;20459;-68
2022/01/23 15:37:21;;;;;;;19.90;8.20;;;;;;;;;;4953544;28;20578;-66
2022/01/23 15:39:48;;;;;;;23.13;9.00;;;;;;;;;;4935569;28;20365;-66
2022/01/23 15:42:13;;;;;;;22.52;8.43;;;;;;;;;;4952840;28;20033;-67
2022/01/23 15:44:40;;;;;;;19.27;7.15;;;;;;;;;;4935005;28;20413;-66
2022/01/23 15:47:06;;;;;;;20.30;7.00;;;;;;;;;;4935841;28;20049;-67
2022/01/23 15:49:31;;;;;;;21.85;7.53;;;;;;;;;;4935590;28;20440;-66
2022/01/23 15:51:56;;;;;;;22.33;8.57;;;;;;;;;;4935393;28;20417;-68
2022/01/23 15:54:22;;;;;;;16.73;7.60;;;;;;;;;;4953810;28;20340;-67
2022/01/23 15:56:48;;;;;;;16.45;6.82;;;;;;;;;;4935460;28;20368;-67
2022/01/23 15:59:17;;;;;;;15.90;7.30;;;;;;;;;;4952489;28;20413;-66
2022/01/23 16:01:44;;;;;;;16.63;8.05;;;;;;;;;;4952840;28;20091;-67
2022/01/23 16:04:10;;;;;;;20.88;7.65;;;;;;;;;;4952616;28;20380;-67
2022/01/23 16:06:35;;;;;;;17.48;7.43;;;;;;;;;;4966768;28;20045;-67
2022/01/23 16:09:00;;;;;;;19.15;7.68;;;;;;;;;;4934563;28;20344;-67
2022/01/23 16:11:26;;;;;;;20.17;8.05;;;;;;;;;;4930766;28;20073;-71
2022/01/23 16:13:51;;;;;;;17.70;7.95;;;;;;;;;;4952683;28;20156;-66
2022/01/23 16:16:16;;;;;;;25.13;9.07;;;;;;;;;;4952204;28;20029;-67
2022/01/23 16:18:42;;;;;;;25.33;9.35;;;;;;;;;;4918942;28;20325;-66
2022/01/23 16:21:09;;;;;;;24.27;9.65;;;;;;;;;;4952068;28;20360;-67
2022/01/23 16:23:35;;;;;;;24.48;9.70;;;;;;;;;;4954130;28;20034;-67
2022/01/23 16:26:00;;;;;;;28.42;9.93;;;;;;;;;;4967064;28;20412;-67
2022/01/23 16:28:26;;;;;;;25.48;10.27;;;;;;;;;;4952774;28;20321;-67
2022/01/23 16:30:53;;;;;;;26.63;10.10;;;;;;;;;;4950449;28;20377;-66
2022/01/23 16:33:19;;;;;;;29.30;11.10;;;;;;;;;;4934852;28;20432;-66
2022/01/23 16:35:45;;;;;;;24.30;10.43;;;;;;;;;;4952135;28;20034;-66
2022/01/23 16:38:12;;;;;;;28.35;10.60;;;;;;;;;;4952236;28;20052;-67
2022/01/23 16:40:42;;;;;;;24.25;10.43;;;;;;;;;;4950398;28;20313;-67
2022/01/23 16:43:07;;;;;;;25.08;10.10;;;;;;;;;;4951974;28;20344;-66
2022/01/23 16:45:34;;;;;;;25.05;10.65;;;;;;;;;;4934429;28;20030;-67
2022/01/23 16:47:59;;;;;;;21.60;9.07;;;;;;;;;;4934040;28;20030;-66
2022/01/23 16:50:24;;;;;;;24.75;10.50;;;;;;;;;;4951947;28;20405;-67
2022/01/23 16:52:51;;;;;;;20.98;10.05;;;;;;;;;;4950219;28;20440;-67
2022/01/23 16:55:17;;;;;;;24.27;9.30;;;;;;;;;;4951884;28;20422;-67
2022/01/23 16:57:42;;;;;;;25.08;9.98;;;;;;;;;;4951458;28;20456;-66
2022/01/23 17:00:08;;;;;;;27.58;10.43;;;;;;;;;;4952291;28;20440;-68
2022/01/23 17:02:33;;;;;;;23.27;10.38;;;;;;;;;;4934184;28;20432;-66
2022/01/23 17:04:59;;;;;;;18.92;8.85;;;;;;;;;;4952325;28;20310;-67
2022/01/23 17:07:24;;;;;;;24.98;9.15;;;;;;;;;;4930547;28;20468;-67
2022/01/23 17:09:49;;;;;;;24.55;10.18;;;;;;;;;;4930538;28;20038;-67
2022/01/23 17:12:15;;;;;;;25.58;10.80;;;;;;;;;;4930904;28;20053;-67
2022/01/23 17:14:40;;;;;;;24.42;11.15;;;;;;;;;;4930731;28;20496;-66
2022/01/23 17:17:05;;;;;;;21.48;9.93;;;;;;;;;;4931728;28;20429;-66
2022/01/23 17:19:31;;;;;;;27.05;10.82;;;;;;;;;;4930711;28;20427;-67
2022/01/23 17:21:56;;;;;;;28.88;10.65;;;;;;;;;;4931253;28;20476;-67
2022/01/23 17:24:21;;;;;;;28.88;9.85;;;;;;;;;;4932103;28;20426;-66
2022/01/23 17:26:47;;;;;;;23.90;9.65;;;;;;;;;;4931954;28;20413;-68
2022/01/23 17:29:12;;;;;;;29.85;10.48;;;;;;;;;;4932123;28;20400;-67
2022/01/23 17:31:37;;;;;;;19.48;9.02;;;;;;;;;;4930798;28;20409;-67
2022/01/23 17:34:03;;;;;;;19.77;8.85;;;;;;;;;;4930366;28;20345;-66
2022/01/23 17:36:28;;;;;;;22.98;9.55;;;;;;;;;;4931794;28;20384;-67
2022/01/23 17:38:53;;;;;;;26.13;9.40;;;;;;;;;;4931742;28;20340;-68
2022/01/23 17:41:19;;;;;;;22.08;9.82;;;;;;;;;;4932142;28;20441;-66
2022/01/23 17:43:47;;;;;;;26.13;10.63;;;;;;;;;;4913905;28;20456;-68
2022/01/23 17:46:20;;;;;;;23.90;9.40;;;;;;;;;;4932992;28;20433;-67
2022/01/23 17:48:49;;;;;;;22.42;9.23;;;;;;;;;;4931534;28;20365;-67
2022/01/23 17:51:15;;;;;;;27.48;10.88;;;;;;;;;;4931833;28;20388;-66
2022/01/23 17:53:42;;;;;;;22.38;9.10;;;;;;;;;;4932834;28;20390;-67